Main page
METAR-TAF:

METAR-TAF

Airports :

Orange County Airport

Montgomery, New York, United States

latitude: 41-30-33N, longitude: 074-15-54W, elevation: 364 ft

Current weather observation

The report was made 15 minutes ago, at 21:54 UTC
Wind 10 mph from the North
Temperature 52°F
Humidity 37%
Pressure 29.72 in. Hg
Visibility: 10 miles
Overcast at a height of 6500 ft

METAR: KMGJ 012154Z AUTO 01009KT 10SM OVC065 11/M03 A2972 RMK AO2 SLP066 T01111028

Time: 18:09 (22:09 UTC)


TAF: missing

Weather observations and forecasts of more than 4000 airports (METAR and TAF reports).

The available stations are represented by yellow and red dots on the map.

Hover mouse over dot to see the name of the station.

Then click to see weather observations and forecasts.

To change the map : click on the green buttons with a black cross to zoom in, on the green button with a dash to zoom out, or on the green arrows for adjacent maps.


METAR-TAF: